Time;durP1;ratioP1;P1;durP2;ratioP2;P2;SDS_P1;SDS_P2;PMS_P1;PMS_P2;Temp;Humidity;BMP_temperature;BMP_pressure;BME280_temperature;BME280_humidity;BME280_pressure;Samples;Min_cycle;Max_cycle;Signal;HPM_P1;HPM_P2
2022/04/15 00:02:21;;;;;;;7.05;3.78;;;13.40;99.90;;;;;;5031808;28;20144;-58
2022/04/15 00:04:48;;;;;;;10.32;4.28;;;13.40;99.90;;;;;;5033314;28;20052;-57
2022/04/15 00:07:15;;;;;;;8.82;4.07;;;13.40;99.90;;;;;;5022811;28;20054;-57
2022/04/15 00:09:42;;;;;;;8.15;3.17;;;13.40;99.90;;;;;;5032507;28;20041;-56
2022/04/15 00:12:17;;;;;;;6.28;3.33;;;13.30;99.90;;;;;;5032871;28;20136;-56
2022/04/15 00:14:44;;;;;;;5.32;3.03;;;13.30;99.90;;;;;;5032267;28;20062;-56
2022/04/15 00:17:12;;;;;;;5.57;2.97;;;13.20;99.90;;;;;;5031646;28;20069;-56
2022/04/15 00:19:39;;;;;;;7.35;3.88;;;13.20;99.90;;;;;;5030405;28;20436;-56
2022/04/15 00:22:06;;;;;;;6.45;3.22;;;13.10;99.90;;;;;;5030485;28;20081;-57
2022/04/15 00:24:33;;;;;;;7.63;3.42;;;13.00;99.90;;;;;;5033613;28;20456;-56
2022/04/15 00:26:59;;;;;;;6.72;3.55;;;13.00;99.90;;;;;;5032721;28;20125;-58
2022/04/15 00:29:28;;;;;;;7.30;3.60;;;13.00;99.90;;;;;;5032357;28;20053;-56
2022/04/15 00:31:55;;;;;;;6.22;3.25;;;13.00;99.90;;;;;;5033888;28;20056;-57
2022/04/15 00:34:22;;;;;;;9.20;3.42;;;13.00;99.90;;;;;;5033705;28;20077;-55
2022/04/15 00:36:48;;;;;;;7.32;3.20;;;13.00;99.90;;;;;;5033855;28;20081;-57
2022/04/15 00:39:15;;;;;;;6.45;3.22;;;13.00;99.90;;;;;;5032167;28;20045;-57
2022/04/15 00:41:43;;;;;;;5.47;3.22;;;13.00;99.90;;;;;;5033311;28;20046;-57
2022/04/15 00:44:10;;;;;;;8.90;3.92;;;12.90;99.90;;;;;;5033672;28;20486;-58
2022/04/15 00:46:37;;;;;;;5.05;3.15;;;12.80;99.90;;;;;;5032365;28;20045;-55
2022/04/15 00:49:03;;;;;;;12.73;4.40;;;12.80;99.90;;;;;;5033498;28;20171;-57
2022/04/15 00:51:30;;;;;;;5.95;3.22;;;12.80;99.90;;;;;;5033523;28;20142;-57
2022/04/15 00:53:57;;;;;;;6.28;3.22;;;12.80;99.90;;;;;;4999337;28;20088;-57
2022/04/15 00:56:25;;;;;;;10.13;3.25;;;12.70;99.90;;;;;;5014656;28;20049;-57
2022/04/15 00:58:51;;;;;;;4.30;2.45;;;12.70;99.90;;;;;;5032347;28;20455;-57
2022/04/15 01:01:18;;;;;;;9.98;3.00;;;12.70;99.90;;;;;;5015516;28;20084;-59
2022/04/15 01:03:45;;;;;;;7.63;3.03;;;12.70;99.90;;;;;;5033047;28;20049;-56
2022/04/15 01:06:13;;;;;;;5.70;3.10;;;12.70;99.90;;;;;;5032905;28;20056;-57
2022/04/15 01:08:40;;;;;;;7.55;2.90;;;12.60;99.90;;;;;;5031750;28;20117;-56
2022/04/15 01:11:08;;;;;;;9.65;3.67;;;12.50;99.90;;;;;;5031296;28;20543;-56
2022/04/15 01:13:36;;;;;;;13.18;4.32;;;12.40;99.90;;;;;;5031988;28;20140;-57
2022/04/15 01:16:03;;;;;;;5.07;3.75;;;12.30;99.90;;;;;;5032633;28;20095;-55
2022/04/15 01:18:30;;;;;;;5.75;2.60;;;12.30;99.90;;;;;;5031560;28;20504;-58
2022/04/15 01:20:56;;;;;;;8.25;2.92;;;12.30;99.90;;;;;;5030920;28;20497;-55
2022/04/15 01:23:23;;;;;;;5.47;2.85;;;12.30;99.90;;;;;;5032573;28;20132;-57
2022/04/15 01:25:50;;;;;;;7.97;2.70;;;12.30;99.90;;;;;;5032870;28;20068;-56
2022/04/15 01:28:17;;;;;;;7.90;3.08;;;12.30;99.90;;;;;;5025546;28;20512;-55
2022/04/15 01:30:45;;;;;;;7.85;2.90;;;12.20;99.90;;;;;;5032589;28;20037;-57
2022/04/15 01:33:12;;;;;;;8.55;3.47;;;12.20;99.90;;;;;;5032179;28;20057;-57
2022/04/15 01:35:40;;;;;;;6.00;2.85;;;12.20;99.90;;;;;;5031521;28;20440;-56
2022/04/15 01:38:10;;;;;;;5.32;3.67;;;12.10;99.90;;;;;;5030605;28;20496;-57
2022/04/15 01:40:37;;;;;;;7.72;3.35;;;12.10;99.90;;;;;;5030949;28;20049;-57
2022/04/15 01:43:04;;;;;;;7.13;2.45;;;12.10;99.90;;;;;;5031346;28;20072;-57
2022/04/15 01:45:31;;;;;;;12.10;3.22;;;12.10;99.90;;;;;;5032073;28;20050;-56
2022/04/15 01:47:58;;;;;;;5.25;2.65;;;12.10;99.90;;;;;;5031876;28;20045;-55
2022/04/15 01:50:28;;;;;;;4.43;2.47;;;12.00;99.90;;;;;;5031607;28;20140;-54
2022/04/15 01:52:56;;;;;;;7.03;3.13;;;12.00;99.90;;;;;;5032267;28;20049;-56
2022/04/15 01:55:22;;;;;;;6.22;3.55;;;11.90;99.90;;;;;;5032533;28;20049;-57
2022/04/15 01:57:49;;;;;;;6.68;2.83;;;11.80;99.90;;;;;;5031077;28;20472;-56
2022/04/15 02:00:17;;;;;;;6.57;3.38;;;11.70;99.90;;;;;;5030884;28;20080;-54
2022/04/15 02:02:43;;;;;;;5.78;3.17;;;11.70;99.90;;;;;;5031411;28;20096;-57
2022/04/15 02:05:10;;;;;;;8.35;3.13;;;11.70;99.90;;;;;;5030919;28;20472;-56
2022/04/15 02:07:37;;;;;;;9.77;2.78;;;11.80;99.90;;;;;;5030957;28;20797;-57
2022/04/15 02:10:04;;;;;;;6.60;3.10;;;11.90;99.90;;;;;;5031619;28;20459;-56
2022/04/15 02:12:31;;;;;;;5.55;3.10;;;11.80;99.90;;;;;;5031384;28;20441;-56
2022/04/15 02:14:58;;;;;;;6.20;3.00;;;11.80;99.90;;;;;;5031982;28;20049;-57
2022/04/15 02:17:25;;;;;;;5.80;2.90;;;11.70;99.90;;;;;;5031264;28;20053;-56
2022/04/15 02:19:52;;;;;;;6.72;3.22;;;11.60;99.90;;;;;;5031696;28;20046;-58
2022/04/15 02:22:19;;;;;;;6.45;3.00;;;11.60;99.90;;;;;;5031264;28;20461;-56
2022/04/15 02:24:46;;;;;;;10.05;3.22;;;11.60;99.90;;;;;;5031569;28;20073;-56
2022/04/15 02:27:12;;;;;;;8.13;2.90;;;11.60;99.90;;;;;;5030685;28;20042;-55
2022/04/15 02:29:39;;;;;;;7.53;3.33;;;11.60;99.90;;;;;;5031384;28;20545;-56
2022/04/15 02:32:06;;;;;;;10.40;3.05;;;11.60;99.90;;;;;;5031139;28;20087;-56
2022/04/15 02:34:33;;;;;;;5.40;2.85;;;11.60;99.90;;;;;;5031138;28;20143;-57
2022/04/15 02:37:00;;;;;;;5.75;2.42;;;11.50;99.90;;;;;;5031567;28;20053;-56
2022/04/15 02:39:27;;;;;;;14.43;3.45;;;11.60;99.90;;;;;;5031218;28;20128;-56
2022/04/15 02:41:55;;;;;;;5.10;3.17;;;11.50;99.90;;;;;;5030978;28;20132;-58
2022/04/15 02:44:23;;;;;;;6.53;3.03;;;11.50;99.90;;;;;;5030787;28;20136;-57
2022/04/15 02:46:50;;;;;;;9.40;3.38;;;11.50;99.90;;;;;;5029929;28;20113;-56
2022/04/15 02:49:16;;;;;;;8.63;3.42;;;11.50;99.90;;;;;;5030026;28;20081;-54
2022/04/15 02:51:43;;;;;;;6.13;3.35;;;11.50;99.90;;;;;;5031015;28;20132;-56
2022/04/15 02:54:10;;;;;;;5.82;2.92;;;11.50;99.90;;;;;;5029627;28;20053;-56
2022/04/15 02:56:36;;;;;;;5.20;2.80;;;11.40;99.90;;;;;;5030244;28;20072;-56
2022/04/15 02:59:03;;;;;;;7.68;2.95;;;11.40;99.90;;;;;;5029676;28;20563;-55
2022/04/15 03:01:30;;;;;;;5.85;3.42;;;11.30;99.90;;;;;;5031197;28;20125;-54
2022/04/15 03:03:57;;;;;;;6.00;3.15;;;11.20;99.90;;;;;;5030679;28;20045;-56
2022/04/15 03:06:23;;;;;;;6.10;3.50;;;11.20;99.90;;;;;;5031163;28;20080;-57
2022/04/15 03:08:50;;;;;;;7.93;3.00;;;11.20;99.90;;;;;;5029457;28;20045;-56
2022/04/15 03:11:17;;;;;;;4.43;2.88;;;11.10;99.90;;;;;;5030638;28;20095;-54
2022/04/15 03:13:44;;;;;;;8.40;2.95;;;11.00;99.90;;;;;;5030337;28;20132;-57
2022/04/15 03:16:11;;;;;;;8.48;3.08;;;11.00;99.90;;;;;;5030924;28;20100;-58
2022/04/15 03:18:38;;;;;;;10.88;3.22;;;11.00;99.90;;;;;;5030648;28;20125;-58
2022/04/15 03:21:05;;;;;;;10.30;3.75;;;11.00;99.90;;;;;;5030577;28;20129;-58
2022/04/15 03:23:32;;;;;;;7.95;3.45;;;11.00;99.90;;;;;;5026970;28;20108;-55
2022/04/15 03:25:59;;;;;;;12.20;4.40;;;11.00;99.90;;;;;;5028642;28;20079;-58
2022/04/15 03:28:25;;;;;;;9.10;3.38;;;11.00;99.90;;;;;;5030728;28;20421;-58
2022/04/15 03:30:52;;;;;;;7.15;3.17;;;10.90;99.90;;;;;;5030531;28;20133;-55
2022/04/15 03:33:19;;;;;;;7.30;3.60;;;10.80;99.90;;;;;;5030581;28;20057;-58
2022/04/15 03:35:46;;;;;;;7.78;2.90;;;10.80;99.90;;;;;;5030440;28;20552;-59
2022/04/15 03:38:12;;;;;;;8.05;3.40;;;10.90;99.90;;;;;;5030779;28;20386;-55
2022/04/15 03:40:39;;;;;;;8.10;3.50;;;10.90;99.90;;;;;;5030122;28;20136;-58
2022/04/15 03:43:06;;;;;;;8.15;3.50;;;10.90;99.90;;;;;;5028919;28;20615;-58
2022/04/15 03:45:33;;;;;;;8.77;3.22;;;10.90;99.90;;;;;;5028637;28;20045;-56
2022/04/15 03:48:00;;;;;;;8.32;4.07;;;10.80;99.90;;;;;;5030628;28;20417;-57
2022/04/15 03:50:27;;;;;;;10.00;4.15;;;10.70;99.90;;;;;;5030464;28;20049;-54
2022/04/15 03:52:54;;;;;;;12.05;4.57;;;10.70;99.90;;;;;;5029697;28;20049;-55
2022/04/15 03:55:22;;;;;;;5.28;3.28;;;10.70;99.90;;;;;;5028839;28;20041;-57
2022/04/15 03:57:49;;;;;;;10.07;4.15;;;10.70;99.90;;;;;;5029270;28;20058;-56
2022/04/15 04:00:20;;;;;;;7.68;4.10;;;10.70;99.90;;;;;;5031458;28;20072;-57
2022/04/15 04:02:52;;;;;;;6.75;3.88;;;10.60;99.90;;;;;;5029404;28;20132;-57
2022/04/15 04:05:20;;;;;;;6.28;3.40;;;10.60;99.90;;;;;;5029725;28;20054;-57
2022/04/15 04:07:47;;;;;;;10.23;4.50;;;10.60;99.90;;;;;;5030473;28;20045;-57
2022/04/15 04:10:14;;;;;;;7.75;3.78;;;10.60;99.90;;;;;;5030740;28;20508;-58
2022/04/15 04:12:41;;;;;;;8.38;3.63;;;10.60;99.90;;;;;;5030620;28;20077;-57
2022/04/15 04:15:09;;;;;;;6.55;3.72;;;10.60;99.90;;;;;;5032452;28;20148;-57
2022/04/15 04:17:36;;;;;;;8.02;3.55;;;10.50;99.90;;;;;;5033545;28;20103;-58
2022/04/15 04:20:07;;;;;;;7.30;3.28;;;10.50;99.90;;;;;;5031422;28;20094;-59
2022/04/15 04:22:34;;;;;;;9.40;4.03;;;10.50;99.90;;;;;;5031477;28;20119;-58
2022/04/15 04:25:01;;;;;;;7.53;4.25;;;10.40;99.90;;;;;;5032500;28;20049;-57
2022/04/15 04:27:28;;;;;;;5.32;3.38;;;10.40;99.90;;;;;;5032514;28;20085;-57
2022/04/15 04:29:55;;;;;;;7.07;3.15;;;10.40;99.90;;;;;;5031695;28;20045;-58
2022/04/15 04:32:22;;;;;;;9.55;3.72;;;10.30;99.90;;;;;;5035334;28;20049;-57
2022/04/15 04:34:48;;;;;;;8.45;3.80;;;10.20;99.90;;;;;;5034514;28;20061;-59
2022/04/15 04:37:15;;;;;;;8.48;3.80;;;10.30;99.90;;;;;;5035753;28;20077;-58
2022/04/15 04:39:42;;;;;;;7.47;3.72;;;10.30;99.90;;;;;;5036670;28;20519;-58
2022/04/15 04:42:09;;;;;;;6.78;3.42;;;10.30;99.90;;;;;;5036676;28;20054;-58
2022/04/15 04:44:37;;;;;;;8.88;3.95;;;10.30;99.90;;;;;;5036652;28;20049;-59
2022/04/15 04:47:08;;;;;;;9.82;3.67;;;10.30;99.90;;;;;;5035259;28;20050;-55
2022/04/15 04:49:35;;;;;;;6.40;3.83;;;10.30;99.90;;;;;;5034053;28;20100;-58
2022/04/15 04:52:03;;;;;;;8.05;3.92;;;10.20;99.90;;;;;;5016052;28;20088;-58
2022/04/15 04:54:30;;;;;;;9.63;4.10;;;10.20;99.90;;;;;;5031349;28;20085;-60
2022/04/15 04:56:57;;;;;;;9.15;4.28;;;10.10;99.90;;;;;;5032196;28;20103;-57
2022/04/15 04:59:28;;;;;;;6.60;4.18;;;10.00;99.90;;;;;;5015723;28;20076;-57
2022/04/15 05:01:55;;;;;;;11.50;4.03;;;10.00;99.90;;;;;;5033526;28;20107;-57
2022/04/15 05:04:22;;;;;;;12.45;4.00;;;10.00;99.90;;;;;;5033272;28;20054;-57
2022/04/15 05:06:49;;;;;;;6.93;4.15;;;10.00;99.90;;;;;;5033498;28;20053;-52
2022/04/15 05:09:15;;;;;;;7.80;3.65;;;10.00;99.90;;;;;;5033302;28;20095;-56
2022/04/15 05:11:42;;;;;;;8.90;4.03;;;10.00;99.90;;;;;;5033685;28;20061;-58
2022/04/15 05:14:09;;;;;;;9.85;3.70;;;10.00;99.90;;;;;;5032861;28;20049;-58
2022/04/15 05:16:36;;;;;;;8.48;4.20;;;10.00;99.90;;;;;;5032850;28;20041;-57
2022/04/15 05:19:03;;;;;;;9.27;3.75;;;10.00;99.90;;;;;;5033413;28;20414;-57
2022/04/15 05:21:29;;;;;;;9.07;4.00;;;9.90;99.90;;;;;;5033500;28;20049;-55
2022/04/15 05:23:56;;;;;;;9.30;4.15;;;10.00;99.90;;;;;;5031935;28;20088;-58
2022/04/15 05:26:23;;;;;;;7.78;4.28;;;10.00;99.90;;;;;;5032765;28;20052;-56
2022/04/15 05:28:49;;;;;;;7.97;4.03;;;10.00;99.90;;;;;;5032526;28;20133;-57
2022/04/15 05:31:16;;;;;;;7.13;3.10;;;10.00;99.90;;;;;;5032849;28;20053;-56
2022/04/15 05:33:43;;;;;;;10.25;3.70;;;10.00;99.90;;;;;;5032523;28;20049;-57
2022/04/15 05:36:10;;;;;;;10.38;5.32;;;10.10;99.90;;;;;;5032758;28;20512;-57
2022/04/15 05:38:37;;;;;;;10.23;4.32;;;10.10;99.90;;;;;;5032310;28;20081;-56
2022/04/15 05:41:10;;;;;;;9.75;4.65;;;10.20;99.90;;;;;;5032298;28;20060;-58
2022/04/15 05:43:37;;;;;;;11.55;5.05;;;10.20;99.90;;;;;;5031258;28;20451;-60
2022/04/15 05:46:04;;;;;;;10.93;4.78;;;10.20;99.90;;;;;;5032827;28;20079;-58
2022/04/15 05:48:31;;;;;;;9.63;5.30;;;10.30;99.90;;;;;;5032650;28;20068;-57
2022/04/15 05:50:58;;;;;;;9.35;4.57;;;10.30;99.90;;;;;;5032010;28;20088;-58
2022/04/15 05:53:25;;;;;;;10.43;5.05;;;10.40;99.90;;;;;;5031828;28;20046;-58
2022/04/15 05:55:52;;;;;;;15.02;5.20;;;10.40;99.90;;;;;;5031667;28;20153;-55
2022/04/15 05:58:24;;;;;;;10.35;5.00;;;10.50;99.90;;;;;;5031904;28;20543;-55
2022/04/15 06:00:51;;;;;;;11.27;5.13;;;10.50;99.90;;;;;;5031626;28;20084;-57
2022/04/15 06:03:20;;;;;;;10.43;4.13;;;10.50;99.90;;;;;;5030969;28;20476;-57
2022/04/15 06:05:47;;;;;;;13.60;5.70;;;10.60;99.90;;;;;;5014459;28;20103;-57
2022/04/15 06:08:14;;;;;;;13.38;5.95;;;10.70;99.90;;;;;;5031903;28;20049;-56
2022/04/15 06:10:41;;;;;;;14.45;4.90;;;10.80;99.90;;;;;;5031061;28;20524;-58
2022/04/15 06:13:14;;;;;;;11.43;6.03;;;10.80;99.90;;;;;;5030640;28;20140;-57
2022/04/15 06:15:51;;;;;;;13.80;5.05;;;10.90;99.90;;;;;;5030638;28;20038;-57
2022/04/15 06:18:18;;;;;;;10.25;5.28;;;10.90;99.90;;;;;;5031914;28;20107;-57
2022/04/15 06:20:46;;;;;;;17.13;6.07;;;10.90;99.90;;;;;;5031319;28;20505;-56
2022/04/15 06:23:14;;;;;;;9.55;6.15;;;11.00;99.90;;;;;;5030720;28;20156;-56
2022/04/15 06:25:41;;;;;;;14.32;5.95;;;11.00;99.90;;;;;;5031275;28;20076;-54
2022/04/15 06:28:08;;;;;;;14.23;5.38;;;11.00;99.90;;;;;;5031297;28;20140;-56
2022/04/15 06:30:35;;;;;;;11.00;5.20;;;11.10;99.90;;;;;;5031425;28;20096;-55
2022/04/15 06:33:05;;;;;;;11.45;5.32;;;11.20;99.90;;;;;;5031246;28;20049;-56
2022/04/15 06:35:33;;;;;;;12.07;5.40;;;11.20;99.90;;;;;;5031303;28;20416;-55
2022/04/15 06:37:59;;;;;;;11.98;5.65;;;11.30;99.90;;;;;;5031355;28;20069;-56
2022/04/15 06:40:27;;;;;;;11.60;5.80;;;11.30;99.90;;;;;;5030952;28;20508;-55
2022/04/15 06:42:53;;;;;;;10.70;5.75;;;11.40;99.90;;;;;;5030945;28;20041;-57
2022/04/15 06:45:23;;;;;;;14.55;8.30;;;11.50;99.90;;;;;;5027863;28;20092;-57
2022/04/15 06:47:50;;;;;;;12.98;6.22;;;11.60;99.90;;;;;;5011799;28;20080;-56
2022/04/15 06:50:19;;;;;;;10.57;6.00;;;11.60;99.90;;;;;;5020339;28;20077;-57
2022/04/15 06:52:46;;;;;;;11.07;6.03;;;11.70;99.90;;;;;;5028133;28;20152;-57
2022/04/15 06:55:12;;;;;;;12.85;6.03;;;11.70;99.90;;;;;;5030638;28;20073;-55
2022/04/15 06:57:39;;;;;;;11.15;5.53;;;11.80;99.90;;;;;;5013147;28;20476;-56
2022/04/15 07:00:08;;;;;;;13.80;6.32;;;11.90;99.90;;;;;;5030829;28;20092;-55
2022/04/15 07:02:35;;;;;;;10.00;6.22;;;11.90;99.90;;;;;;5027389;28;20073;-56
2022/04/15 07:05:05;;;;;;;9.93;5.90;;;11.90;99.90;;;;;;5027385;28;20055;-58
2022/04/15 07:07:32;;;;;;;11.77;6.22;;;12.00;99.90;;;;;;5028736;28;20057;-60
2022/04/15 07:09:59;;;;;;;12.55;6.57;;;12.00;99.90;;;;;;5021904;28;20092;-57
2022/04/15 07:12:26;;;;;;;12.55;5.93;;;12.10;99.90;;;;;;5024676;28;20049;-57
2022/04/15 07:14:53;;;;;;;11.77;5.80;;;12.10;99.90;;;;;;5023577;28;20116;-56
2022/04/15 07:17:19;;;;;;;16.23;6.20;;;12.20;99.90;;;;;;5007035;28;20443;-58
2022/04/15 07:19:46;;;;;;;11.95;6.40;;;12.20;99.90;;;;;;5024842;28;20150;-56
2022/04/15 07:22:19;;;;;;;13.73;7.32;;;12.30;99.90;;;;;;5023616;28;20041;-58
2022/04/15 07:24:46;;;;;;;13.85;7.60;;;12.30;99.90;;;;;;5026579;28;20045;-58
2022/04/15 07:27:13;;;;;;;15.35;6.70;;;12.40;99.90;;;;;;5021159;28;20520;-56
2022/04/15 07:29:40;;;;;;;15.90;7.00;;;12.50;99.90;;;;;;5030087;28;20081;-58
2022/04/15 07:32:07;;;;;;;12.07;6.18;;;12.60;99.90;;;;;;5028741;28;20053;-57
2022/04/15 07:34:37;;;;;;;10.75;5.32;;;12.60;99.90;;;;;;5027880;28;20057;-58
2022/04/15 07:37:05;;;;;;;14.30;5.70;;;12.70;99.90;;;;;;5028228;28;20081;-55
2022/04/15 07:39:32;;;;;;;16.20;7.22;;;12.80;99.90;;;;;;5029035;28;20049;-55
2022/04/15 07:41:59;;;;;;;16.15;6.60;;;12.80;99.90;;;;;;5030314;28;20041;-57
2022/04/15 07:44:26;;;;;;;11.70;6.80;;;12.90;99.90;;;;;;5028129;28;20136;-58
2022/04/15 07:46:52;;;;;;;17.23;6.43;;;13.00;99.90;;;;;;5024307;28;20101;-59
2022/04/15 07:49:19;;;;;;;12.45;6.55;;;13.00;99.90;;;;;;5026457;28;20049;-58
2022/04/15 07:51:46;;;;;;;20.00;6.43;;;13.10;99.90;;;;;;5023752;28;20083;-58
2022/04/15 07:54:13;;;;;;;18.17;7.20;;;13.20;99.90;;;;;;5025407;28;20496;-56
2022/04/15 07:56:39;;;;;;;17.75;6.55;;;13.40;99.90;;;;;;5020553;28;20137;-58
2022/04/15 07:59:07;;;;;;;10.90;5.32;;;13.40;99.90;;;;;;5020189;28;20076;-54
2022/04/15 08:01:34;;;;;;;15.98;6.15;;;13.50;99.90;;;;;;5025764;28;20061;-57
2022/04/15 08:04:01;;;;;;;14.32;6.25;;;13.60;99.90;;;;;;5020739;28;20100;-58
2022/04/15 08:06:31;;;;;;;15.65;5.70;;;13.60;99.90;;;;;;5023785;28;20568;-57
2022/04/15 08:08:59;;;;;;;11.65;5.22;;;13.70;99.90;;;;;;5027773;28;20145;-58
2022/04/15 08:11:27;;;;;;;10.52;5.57;;;13.70;99.90;;;;;;5030484;28;20073;-57
2022/04/15 08:13:54;;;;;;;13.43;6.00;;;13.80;99.90;;;;;;5024500;28;20065;-58
2022/04/15 08:16:21;;;;;;;10.05;5.88;;;13.90;99.90;;;;;;5029070;28;20527;-53
2022/04/15 08:18:49;;;;;;;10.63;5.55;;;14.00;99.90;;;;;;5031921;28;20064;-58
2022/04/15 08:21:16;;;;;;;10.05;5.50;;;14.10;99.90;;;;;;5030670;28;20057;-56
2022/04/15 08:23:43;;;;;;;11.52;5.50;;;14.20;99.90;;;;;;5027712;28;20092;-57
2022/04/15 08:26:11;;;;;;;15.27;6.45;;;14.40;99.90;;;;;;5032081;28;20049;-56
2022/04/15 08:28:38;;;;;;;12.02;4.45;;;14.50;99.90;;;;;;5032424;28;20108;-57
2022/04/15 08:31:04;;;;;;;9.98;4.97;;;14.50;99.90;;;;;;5031754;28;20084;-56
2022/04/15 08:33:31;;;;;;;14.82;5.80;;;14.60;99.90;;;;;;5023869;28;20448;-57
2022/04/15 08:35:58;;;;;;;11.82;7.00;;;14.70;99.90;;;;;;5027325;28;20554;-57
2022/04/15 08:38:25;;;;;;;10.93;5.55;;;14.80;99.90;;;;;;5033031;28;20410;-57
2022/04/15 08:40:56;;;;;;;11.10;5.57;;;14.80;99.90;;;;;;5027896;28;20073;-55
2022/04/15 08:43:25;;;;;;;12.20;5.22;;;14.90;99.90;;;;;;5032524;28;20171;-55
2022/04/15 08:45:52;;;;;;;13.70;4.28;;;15.00;99.90;;;;;;5025922;28;20088;-56
2022/04/15 08:48:19;;;;;;;7.80;4.10;;;15.10;99.90;;;;;;5026161;28;20509;-58
2022/04/15 08:50:46;;;;;;;8.00;4.85;;;15.20;99.90;;;;;;5030121;28;20111;-58
2022/04/15 08:53:13;;;;;;;7.60;4.43;;;15.20;99.90;;;;;;5027460;28;20048;-58
2022/04/15 08:55:39;;;;;;;12.07;5.28;;;15.30;99.90;;;;;;5028164;28;20571;-58
2022/04/15 08:58:06;;;;;;;13.40;4.70;;;15.40;99.90;;;;;;5032533;28;20073;-57
2022/04/15 09:00:33;;;;;;;13.15;5.30;;;15.60;99.90;;;;;;5032795;28;20042;-58
2022/04/15 09:03:03;;;;;;;7.80;4.22;;;15.70;99.90;;;;;;5031775;28;20103;-59
2022/04/15 09:05:30;;;;;;;10.45;5.47;;;15.80;99.90;;;;;;5032584;28;20053;-57
2022/04/15 09:08:08;;;;;;;8.85;4.32;;;15.80;99.90;;;;;;5031570;28;20084;-59
2022/04/15 09:10:35;;;;;;;9.27;4.32;;;15.90;99.90;;;;;;5031745;28;20087;-59
2022/04/15 09:13:03;;;;;;;11.68;4.72;;;15.90;99.90;;;;;;5032776;28;20523;-58
2022/04/15 09:15:34;;;;;;;7.93;4.63;;;16.00;99.90;;;;;;5015723;28;20051;-58
2022/04/15 09:18:01;;;;;;;10.65;4.63;;;16.20;99.90;;;;;;5031215;28;20073;-58
2022/04/15 09:20:31;;;;;;;10.68;4.88;;;16.20;99.90;;;;;;5032013;28;20051;-58
2022/04/15 09:23:08;;;;;;;13.75;5.72;;;16.20;99.90;;;;;;5032676;28;20107;-56
2022/04/15 09:25:35;;;;;;;17.42;5.20;;;16.30;99.90;;;;;;5032724;28;20049;-58
2022/04/15 09:28:02;;;;;;;11.00;4.75;;;16.40;99.90;;;;;;5032217;28;20492;-59
2022/04/15 09:30:35;;;;;;;12.65;4.95;;;16.50;99.90;;;;;;5031277;28;20041;-57
2022/04/15 09:33:03;;;;;;;15.85;5.15;;;16.50;99.90;;;;;;5031400;28;20412;-58
2022/04/15 09:35:30;;;;;;;17.95;4.38;;;16.70;99.90;;;;;;5030937;28;20099;-58
2022/04/15 09:38:03;;;;;;;6.53;3.78;;;17.00;99.90;;;;;;5031647;28;20076;-59
2022/04/15 09:40:35;;;;;;;9.70;4.88;;;17.30;99.20;;;;;;5015176;28;20128;-56
2022/04/15 09:43:03;;;;;;;8.10;4.05;;;17.50;98.20;;;;;;5030395;28;20046;-58
2022/04/15 09:45:31;;;;;;;12.88;4.55;;;17.70;99.10;;;;;;5032163;28;20487;-58
2022/04/15 09:48:08;;;;;;;7.72;3.78;;;18.00;97.60;;;;;;5030925;28;20068;-57
2022/04/15 09:50:43;;;;;;;10.73;4.03;;;18.20;98.60;;;;;;5025621;28;20041;-57
2022/04/15 09:53:17;;;;;;;11.05;4.05;;;18.50;97.50;;;;;;5022790;28;20148;-58
2022/04/15 09:55:50;;;;;;;10.18;4.07;;;18.90;97.30;;;;;;5032027;28;20071;-58
2022/04/15 09:58:18;;;;;;;;;;;19.20;97.20;;;;;;5030632;28;20056;-58
2022/04/15 10:00:49;;;;;;;10.50;3.17;;;19.40;95.30;;;;;;5032281;28;20014;-59
2022/04/15 10:03:24;;;;;;;12.75;4.15;;;19.60;97.60;;;;;;5030943;28;20053;-60
2022/04/15 10:05:54;;;;;;;15.68;4.22;;;19.90;95.40;;;;;;5032111;28;20087;-58
2022/04/15 10:08:21;;;;;;;10.82;3.97;;;20.00;96.40;;;;;;5030554;28;20049;-59
2022/04/15 10:10:49;;;;;;;14.48;4.45;;;20.00;96.20;;;;;;5031962;28;20091;-59
2022/04/15 10:13:15;;;;;;;9.75;4.57;;;20.20;96.00;;;;;;5014233;28;20085;-58
2022/04/15 10:15:47;;;;;;;4.13;3.15;;;20.10;95.90;;;;;;5031880;28;20088;-59
2022/04/15 10:18:14;;;;;;;13.88;4.30;;;20.10;96.00;;;;;;5030528;28;20054;-59
2022/04/15 10:20:42;;;;;;;11.18;3.92;;;19.90;95.80;;;;;;5030464;28;20081;-58
2022/04/15 10:23:09;;;;;;;11.02;3.88;;;19.70;95.70;;;;;;5031685;28;20227;-58
2022/04/15 10:25:36;;;;;;;10.45;3.70;;;19.50;95.70;;;;;;5030274;28;20081;-57
2022/04/15 10:28:06;;;;;;;28.08;4.18;;;19.30;95.80;;;;;;5030169;28;20343;-59
2022/04/15 10:30:36;;;;;;;9.23;3.92;;;19.10;95.40;;;;;;5015537;28;20148;-58
2022/04/15 10:33:03;;;;;;;12.65;4.53;;;19.00;96.00;;;;;;5030176;28;20402;-58
2022/04/15 10:35:32;;;;;;;11.30;3.88;;;18.90;96.20;;;;;;5031563;28;20531;-58
2022/04/15 10:38:11;;;;;;;7.28;3.60;;;18.90;96.20;;;;;;5031759;28;20076;-57
2022/04/15 10:40:45;;;;;;;16.10;3.60;;;19.00;95.20;;;;;;5031026;28;20087;-57
2022/04/15 10:43:20;;;;;;;11.52;4.03;;;18.90;95.40;;;;;;5031289;28;20131;-58
2022/04/15 10:45:47;;;;;;;6.80;3.28;;;18.90;95.60;;;;;;5030780;28;20061;-58
2022/04/15 10:48:15;;;;;;;11.43;3.92;;;18.90;96.10;;;;;;5029863;28;20088;-57
2022/04/15 10:50:41;;;;;;;10.50;3.40;;;18.90;96.10;;;;;;5010161;28;20119;-58
2022/04/15 10:53:18;;;;;;;9.77;3.33;;;19.00;95.50;;;;;;5031191;28;20466;-57
2022/04/15 10:55:52;;;;;;;12.35;4.10;;;19.00;95.10;;;;;;5030642;28;20045;-57
2022/04/15 10:58:20;;;;;;;10.98;3.42;;;19.00;95.70;;;;;;5015219;28;20045;-57
2022/04/15 11:01:19;;;;;;;7.03;3.53;;;19.10;96.00;;;;;;5031193;28;20104;-57
2022/04/15 11:03:56;;;;;;;8.93;3.45;;;19.10;94.90;;;;;;5011111;28;20065;-57
2022/04/15 11:06:30;;;;;;;14.90;3.65;;;19.10;95.50;;;;;;5030303;28;20126;-58
2022/04/15 11:09:13;;;;;;;11.10;3.22;;;19.00;95.50;;;;;;5029993;28;20046;-57
2022/04/15 11:11:40;;;;;;;8.10;3.15;;;19.00;94.60;;;;;;5029710;28;20091;-58
2022/04/15 11:14:08;;;;;;;11.80;3.20;;;19.00;95.50;;;;;;5029965;28;20129;-57
2022/04/15 11:16:48;;;;;;;6.82;3.20;;;19.00;95.70;;;;;;5030703;28;20098;-57
2022/04/15 11:19:25;;;;;;;9.00;3.38;;;19.10;94.70;;;;;;5031150;28;20053;-56
2022/04/15 11:21:53;;;;;;;5.03;2.60;;;19.20;94.80;;;;;;5025390;28;20743;-57
2022/04/15 11:24:30;;;;;;;8.48;3.22;;;19.10;95.20;;;;;;5031034;28;20052;-59
2022/04/15 11:27:00;;;;;;;8.98;2.92;;;19.20;94.30;;;;;;5030517;28;20364;-58
2022/04/15 11:29:31;;;;;;;7.10;2.70;;;19.20;95.10;;;;;;5030832;28;20064;-58
2022/04/15 11:31:59;;;;;;;3.95;2.05;;;19.30;94.40;;;;;;5030448;28;20055;-58
2022/04/15 11:34:26;;;;;;;5.63;2.17;;;19.30;94.30;;;;;;5010709;28;20120;-59
2022/04/15 11:36:53;;;;;;;11.13;2.88;;;19.40;94.10;;;;;;5025106;28;20073;-58
2022/04/15 11:39:21;;;;;;;7.32;2.35;;;19.50;94.20;;;;;;5030494;28;20056;-59
2022/04/15 11:41:56;;;;;;;8.25;2.22;;;19.50;93.80;;;;;;5031421;28;20053;-58
2022/04/15 11:44:27;;;;;;;7.03;2.38;;;19.60;93.40;;;;;;5034628;28;20075;-56
2022/04/15 11:47:15;;;;;;;6.45;2.05;;;19.70;93.30;;;;;;5032932;28;20525;-58
2022/04/15 11:49:43;;;;;;;3.92;2.40;;;19.60;91.70;;;;;;5034897;28;20489;-57
2022/04/15 11:52:10;;;;;;;4.60;1.75;;;19.60;93.10;;;;;;5034382;28;20046;-59
2022/04/15 11:54:40;;;;;;;5.10;1.70;;;19.70;93.40;;;;;;5034404;28;20508;-59
2022/04/15 11:57:07;;;;;;;4.03;1.85;;;19.90;93.40;;;;;;5034237;28;20073;-58
2022/04/15 11:59:38;;;;;;;3.10;1.42;;;20.00;91.60;;;;;;5034526;28;20492;-56
2022/04/15 12:02:05;;;;;;;4.13;1.33;;;19.80;90.90;;;;;;5016856;28;20053;-58
2022/04/15 12:04:32;;;;;;;5.65;1.67;;;19.80;92.30;;;;;;5034160;28;20056;-59
2022/04/15 12:06:59;;;;;;;19.80;2.33;;;19.80;92.50;;;;;;5033993;28;20080;-58
2022/04/15 12:09:26;;;;;;;3.05;1.50;;;19.90;91.60;;;;;;5033196;28;20500;-58
2022/04/15 12:12:08;;;;;;;3.30;1.63;;;20.00;92.10;;;;;;5034139;28;20049;-59
2022/04/15 12:14:37;;;;;;;6.32;1.73;;;20.10;91.80;;;;;;5016628;28;20449;-58
2022/04/15 12:17:04;;;;;;;5.28;1.48;;;20.20;91.70;;;;;;5032773;28;20484;-59
2022/04/15 12:19:30;;;;;;;6.03;1.30;;;20.30;91.10;;;;;;5033898;28;20045;-59
2022/04/15 12:22:00;;;;;;;5.93;1.55;;;20.40;90.70;;;;;;5032351;28;20475;-59
2022/04/15 12:24:30;;;;;;;2.60;1.00;;;20.40;90.30;;;;;;5032866;28;20099;-57
2022/04/15 12:27:00;;;;;;;13.52;4.30;;;20.50;90.80;;;;;;5032946;28;20580;-59
2022/04/15 12:32:26;;;;;;;7.68;1.55;;;20.50;90.50;;;;;;5032873;28;20049;-58
2022/04/15 12:34:55;;;;;;;12.82;1.38;;;20.70;88.30;;;;;;5031609;28;20084;-58
2022/04/15 12:37:41;;;;;;;9.98;1.58;;;20.80;89.70;;;;;;5033690;28;20080;-58
2022/04/15 12:40:17;;;;;;;2.60;1.50;;;20.80;87.60;;;;;;5030829;28;20111;-58
2022/04/15 12:42:45;;;;;;;6.63;1.58;;;20.90;88.30;;;;;;5033343;28;20527;-58
2022/04/15 12:45:17;;;;;;;4.32;1.92;;;21.10;89.90;;;;;;5016065;28;20077;-58
2022/04/15 12:47:47;;;;;;;3.83;1.88;;;21.10;87.80;;;;;;5033762;28;20168;-58
2022/04/15 12:50:26;;;;;;;6.35;1.70;;;21.00;89.30;;;;;;5029840;28;20077;-58
2022/04/15 12:52:54;;;;;;;2.90;1.40;;;20.90;86.50;;;;;;5013944;28;20425;-58